createdAt,value
2023-05-25T00:01:05.132Z,11.85
2023-05-25T00:03:32.597Z,11.83
2023-05-25T00:06:25.036Z,11.79
2023-05-25T00:09:08.243Z,11.73
2023-05-25T00:11:52.370Z,11.81
2023-05-25T00:14:33.659Z,11.85
2023-05-25T00:17:04.318Z,11.83
2023-05-25T00:19:34.281Z,11.86
2023-05-25T00:22:04.234Z,11.84
2023-05-25T00:24:31.785Z,11.82
2023-05-25T00:26:59.427Z,11.72
2023-05-25T00:29:26.801Z,11.78
2023-05-25T00:31:54.184Z,11.47
2023-05-25T00:34:22.154Z,11.67
2023-05-25T00:36:49.167Z,11.69
2023-05-25T00:39:17.018Z,11.63
2023-05-25T00:41:48.294Z,11.60
2023-05-25T00:44:16.440Z,11.59
2023-05-25T00:46:50.977Z,11.59
2023-05-25T00:49:23.784Z,11.59
2023-05-25T00:51:52.301Z,11.52
2023-05-25T00:54:19.853Z,11.24
2023-05-25T00:56:53.712Z,11.48
2023-05-25T00:59:37.256Z,11.52
2023-05-25T01:02:07.271Z,11.40
2023-05-25T01:04:57.224Z,11.44
2023-05-25T01:07:45.649Z,11.39
2023-05-25T01:10:31.485Z,11.36
2023-05-25T01:13:19.295Z,11.40
2023-05-25T01:16:15.076Z,11.43
2023-05-25T01:18:42.263Z,11.45
2023-05-25T01:21:20.541Z,11.50
2023-05-25T01:23:53.224Z,11.50
2023-05-25T01:26:24.021Z,11.56
2023-05-25T01:28:53.526Z,11.58
2023-05-25T01:31:23.649Z,11.48
2023-05-25T01:33:52.154Z,11.43
2023-05-25T01:36:20.298Z,11.33
2023-05-25T01:38:47.586Z,11.41
2023-05-25T01:41:14.536Z,11.39
2023-05-25T01:43:41.963Z,11.35
2023-05-25T01:46:32.156Z,11.33
2023-05-25T01:49:25.420Z,11.24
2023-05-25T01:52:08.079Z,11.29
2023-05-25T01:54:47.508Z,11.30
2023-05-25T01:57:18.096Z,11.34
2023-05-25T01:59:46.786Z,11.36
2023-05-25T02:02:19.231Z,11.28
2023-05-25T02:04:47.602Z,11.31
2023-05-25T02:07:14.633Z,11.35
2023-05-25T02:09:41.618Z,11.36
2023-05-25T02:12:08.799Z,11.37
2023-05-25T02:14:35.760Z,11.44
2023-05-25T02:17:04.036Z,11.44
2023-05-25T02:19:31.033Z,11.48
2023-05-25T02:21:57.957Z,11.47
2023-05-25T02:24:25.695Z,11.41
2023-05-25T02:26:52.659Z,11.41
2023-05-25T02:29:19.623Z,11.47
2023-05-25T02:31:46.650Z,11.43
2023-05-25T02:34:14.130Z,11.42
2023-05-25T02:36:43.608Z,11.30
2023-05-25T02:39:11.519Z,11.24
2023-05-25T02:41:39.018Z,11.25
2023-05-25T02:44:06.805Z,11.26
2023-05-25T02:46:34.413Z,11.22
2023-05-25T02:49:01.451Z,11.16
2023-05-25T02:51:29.151Z,11.14
2023-05-25T02:53:56.191Z,11.20
2023-05-25T02:56:23.289Z,11.12
2023-05-25T02:58:51.063Z,11.04
2023-05-25T03:01:21.035Z,11.12
2023-05-25T03:03:52.919Z,11.17
2023-05-25T03:06:21.762Z,11.16
2023-05-25T03:08:49.192Z,11.22
2023-05-25T03:11:16.174Z,11.30
2023-05-25T03:13:43.083Z,11.35
2023-05-25T03:16:10.084Z,11.26
2023-05-25T03:18:37.014Z,11.23
2023-05-25T03:21:04.047Z,11.20
2023-05-25T03:23:30.962Z,11.14
2023-05-25T03:25:58.308Z,11.21
2023-05-25T03:28:25.150Z,11.24
2023-05-25T03:30:52.145Z,11.35
2023-05-25T03:33:19.020Z,11.40
2023-05-25T03:35:46.503Z,11.37
2023-05-25T03:38:13.541Z,11.35
2023-05-25T03:40:40.452Z,11.31
2023-05-25T03:43:07.378Z,11.36
2023-05-25T03:45:34.240Z,11.20
2023-05-25T03:48:01.433Z,11.29
2023-05-25T03:50:28.391Z,11.27
2023-05-25T03:52:55.297Z,11.27
2023-05-25T03:55:22.200Z,11.34
2023-05-25T03:57:49.190Z,11.42
2023-05-25T04:00:17.173Z,11.48
2023-05-25T04:02:44.247Z,11.44
2023-05-25T04:05:11.226Z,11.38
2023-05-25T04:07:38.203Z,11.36
2023-05-25T04:10:05.758Z,11.30
2023-05-25T04:12:33.256Z,11.42
2023-05-25T04:15:00.247Z,11.47
2023-05-25T04:17:27.242Z,11.44
2023-05-25T04:19:54.227Z,11.42
2023-05-25T04:22:21.223Z,11.43
2023-05-25T04:24:48.801Z,11.39
2023-05-25T04:27:15.905Z,11.36
2023-05-25T04:29:43.277Z,11.33
2023-05-25T04:32:10.814Z,11.37
2023-05-25T04:34:37.960Z,11.38
2023-05-25T04:37:05.823Z,11.41
2023-05-25T04:39:33.094Z,11.34
2023-05-25T04:42:04.739Z,11.43
2023-05-25T04:44:33.002Z,11.48
2023-05-25T04:47:01.573Z,11.54
2023-05-25T04:49:29.056Z,11.47
2023-05-25T04:51:56.223Z,11.44
2023-05-25T04:54:23.132Z,11.45
2023-05-25T04:56:50.204Z,11.51
2023-05-25T04:59:17.278Z,11.32
2023-05-25T05:01:44.828Z,11.45
2023-05-25T05:04:12.164Z,11.39
2023-05-25T05:06:39.744Z,11.41
2023-05-25T05:09:06.853Z,11.36
2023-05-25T05:11:33.847Z,11.40
2023-05-25T05:14:00.871Z,11.38
2023-05-25T05:16:31.862Z,11.36
2023-05-25T05:18:58.783Z,11.45
2023-05-25T05:21:25.948Z,11.45
2023-05-25T05:23:53.036Z,11.52
2023-05-25T05:26:21.473Z,11.58
2023-05-25T05:28:48.386Z,11.60
2023-05-25T05:31:17.667Z,11.68
2023-05-25T05:33:44.697Z,11.63
2023-05-25T05:36:11.706Z,11.66
2023-05-25T05:38:40.624Z,11.70
2023-05-25T05:41:13.675Z,11.74
2023-05-25T05:43:42.558Z,11.74
2023-05-25T05:46:13.194Z,11.71
2023-05-25T05:48:40.243Z,11.84
2023-05-25T05:51:07.190Z,11.75
2023-05-25T05:53:35.719Z,11.64
2023-05-25T05:56:04.114Z,11.67
2023-05-25T05:58:32.668Z,11.56
2023-05-25T06:01:00.418Z,11.62
2023-05-25T06:03:30.125Z,11.52
2023-05-25T06:05:57.127Z,11.46
2023-05-25T06:08:24.105Z,11.50
2023-05-25T06:10:51.239Z,11.46
2023-05-25T06:13:18.150Z,11.58
2023-05-25T06:15:45.446Z,11.56
2023-05-25T06:18:12.585Z,11.51
2023-05-25T06:20:39.691Z,11.56
2023-05-25T06:23:06.710Z,11.59
2023-05-25T06:29:20.303Z,11.76
2023-05-25T06:31:47.409Z,11.63
2023-05-25T06:34:14.544Z,11.69
2023-05-25T06:36:41.952Z,11.74
2023-05-25T06:39:09.018Z,11.81
2023-05-25T06:41:38.878Z,11.84
2023-05-25T06:44:05.870Z,11.87
2023-05-25T06:46:33.540Z,11.95
2023-05-25T06:49:01.517Z,11.92
2023-05-25T06:51:29.319Z,12.03
2023-05-25T06:53:57.187Z,12.05
2023-05-25T06:56:24.349Z,12.08
2023-05-25T06:58:51.494Z,12.03
2023-05-25T07:01:18.461Z,12.14
2023-05-25T07:03:45.447Z,12.15
2023-05-25T07:06:12.556Z,12.17
2023-05-25T07:08:39.536Z,12.18
2023-05-25T07:11:09.314Z,12.19
2023-05-25T07:13:36.696Z,12.08
2023-05-25T07:16:03.685Z,11.92
2023-05-25T07:18:30.761Z,11.94
2023-05-25T07:20:58.401Z,11.87
2023-05-25T07:23:25.372Z,11.77
2023-05-25T07:25:52.532Z,11.75
2023-05-25T07:28:19.490Z,11.74
2023-05-25T07:30:46.465Z,11.92
2023-05-25T07:33:13.446Z,11.98
2023-05-25T07:35:40.842Z,12.03
2023-05-25T07:38:07.853Z,11.92
2023-05-25T07:40:34.806Z,11.94
2023-05-25T07:43:02.186Z,11.99
2023-05-25T07:45:29.197Z,11.96
2023-05-25T07:47:56.265Z,11.77
2023-05-25T07:50:24.144Z,11.72
2023-05-25T07:52:51.443Z,11.83
2023-05-25T07:55:20.702Z,11.89
2023-05-25T07:57:47.667Z,11.92
2023-05-25T08:00:14.886Z,11.79
2023-05-25T08:02:42.205Z,11.89
2023-05-25T08:05:10.377Z,12.00
2023-05-25T08:07:39.565Z,12.00
2023-05-25T08:10:08.932Z,12.08
2023-05-25T08:12:47.790Z,12.07
2023-05-25T08:15:17.340Z,12.04
2023-05-25T08:17:44.609Z,11.87
2023-05-25T08:20:12.560Z,11.94
2023-05-25T08:22:39.605Z,12.14
2023-05-25T08:25:07.155Z,12.16
2023-05-25T08:27:36.068Z,12.21
2023-05-25T08:30:06.313Z,12.14
2023-05-25T08:32:33.555Z,12.23
2023-05-25T08:35:01.926Z,12.39
2023-05-25T08:37:29.588Z,12.38
2023-05-25T08:39:56.696Z,12.46
2023-05-25T08:42:24.193Z,12.29
2023-05-25T08:44:51.202Z,12.17
2023-05-25T08:47:22.896Z,12.31
2023-05-25T08:49:51.111Z,12.27
2023-05-25T08:52:23.335Z,12.35
2023-05-25T08:54:54.489Z,12.03
2023-05-25T08:57:29.867Z,12.14
2023-05-25T09:00:01.010Z,12.20
2023-05-25T09:02:54.781Z,12.37
2023-05-25T09:05:22.901Z,12.40
2023-05-25T09:07:51.749Z,12.53
2023-05-25T09:10:19.145Z,12.56
2023-05-25T09:12:46.951Z,12.74
2023-05-25T09:15:14.078Z,12.86
2023-05-25T09:17:41.719Z,12.98
2023-05-25T09:20:14.218Z,13.04
2023-05-25T09:22:42.436Z,12.83
2023-05-25T09:25:11.202Z,12.88
2023-05-25T09:27:39.230Z,13.09
2023-05-25T09:30:07.009Z,12.98
2023-05-25T09:32:34.366Z,13.02
2023-05-25T09:35:15.242Z,12.76
2023-05-25T09:37:43.913Z,12.95
2023-05-25T09:40:11.517Z,12.92
2023-05-25T09:42:39.051Z,13.05
2023-05-25T09:45:07.198Z,12.74
2023-05-25T09:47:37.750Z,12.88
2023-05-25T09:50:06.054Z,13.05
2023-05-25T09:52:33.020Z,12.99
2023-05-25T09:55:00.195Z,13.27
2023-05-25T09:57:27.659Z,13.16
2023-05-25T09:59:54.600Z,12.91
2023-05-25T10:02:21.559Z,12.84
2023-05-25T10:04:48.844Z,12.98
2023-05-25T10:07:16.469Z,13.06
2023-05-25T10:09:47.259Z,13.03
2023-05-25T10:12:19.568Z,13.22
2023-05-25T10:14:49.431Z,13.26
2023-05-25T10:17:21.753Z,13.00
2023-05-25T10:19:55.861Z,13.18
2023-05-25T10:22:34.750Z,12.97
2023-05-25T10:25:08.004Z,13.16
2023-05-25T10:27:41.073Z,13.42
2023-05-25T10:30:09.956Z,13.54
2023-05-25T10:32:41.269Z,13.78
2023-05-25T10:35:10.584Z,13.90
2023-05-25T10:37:38.905Z,13.76
2023-05-25T10:40:08.786Z,13.64
2023-05-25T10:42:37.396Z,13.60
2023-05-25T10:45:10.092Z,13.65
2023-05-25T10:47:39.374Z,13.54
2023-05-25T10:50:07.021Z,13.56
2023-05-25T10:52:34.978Z,13.62
2023-05-25T10:55:04.530Z,13.69
2023-05-25T10:57:31.815Z,13.67
2023-05-25T11:00:09.117Z,13.53
2023-05-25T11:02:56.145Z,13.73
2023-05-25T11:05:35.487Z,13.78
2023-05-25T11:08:08.733Z,13.65
2023-05-25T11:10:38.842Z,13.61
2023-05-25T11:13:37.845Z,13.86
2023-05-25T11:16:27.757Z,14.18
2023-05-25T11:19:01.176Z,14.39
2023-05-25T11:21:28.174Z,14.36
2023-05-25T11:24:14.763Z,14.22
2023-05-25T11:26:56.512Z,14.36
2023-05-25T11:29:25.722Z,14.40
2023-05-25T11:31:56.840Z,14.54
2023-05-25T11:34:26.312Z,14.47
2023-05-25T11:37:06.673Z,14.56
2023-05-25T11:39:33.692Z,14.45
2023-05-25T11:42:05.560Z,14.12
2023-05-25T11:44:36.553Z,13.86
2023-05-25T11:47:09.009Z,13.77
2023-05-25T11:49:42.093Z,13.92
2023-05-25T11:52:09.814Z,14.06
2023-05-25T11:54:37.155Z,13.98
2023-05-25T11:57:04.944Z,13.83
2023-05-25T11:59:32.976Z,14.04
2023-05-25T12:02:04.555Z,14.10
2023-05-25T12:04:34.480Z,14.07
2023-05-25T12:07:05.504Z,14.32
2023-05-25T12:09:33.094Z,14.57
2023-05-25T12:12:01.108Z,14.53
2023-05-25T12:14:28.130Z,14.51
2023-05-25T12:16:56.098Z,14.58
2023-05-25T12:19:23.519Z,14.67
2023-05-25T12:21:51.999Z,14.84
2023-05-25T12:24:19.747Z,15.08
2023-05-25T12:26:59.869Z,15.26
2023-05-25T12:29:26.930Z,14.96
2023-05-25T12:31:54.218Z,15.10
2023-05-25T12:34:21.412Z,15.33
2023-05-25T12:36:53.392Z,15.13
2023-05-25T12:39:29.473Z,15.45
2023-05-25T12:42:00.647Z,15.33
2023-05-25T12:44:33.888Z,15.62
2023-05-25T12:47:21.034Z,15.96
2023-05-25T12:50:13.842Z,16.23
2023-05-25T12:52:46.689Z,16.32
2023-05-25T12:55:27.635Z,16.07
2023-05-25T12:57:59.149Z,15.99
2023-05-25T13:00:28.700Z,15.89
2023-05-25T13:02:55.821Z,15.80
2023-05-25T13:05:25.374Z,15.54
2023-05-25T13:07:54.474Z,15.47
2023-05-25T13:10:22.045Z,15.53
2023-05-25T13:12:51.207Z,15.58
2023-05-25T13:15:21.362Z,15.33
2023-05-25T13:17:50.708Z,15.51
2023-05-25T13:20:20.300Z,15.53
2023-05-25T13:22:48.784Z,15.41
2023-05-25T13:25:16.050Z,15.66
2023-05-25T13:27:45.155Z,15.61
2023-05-25T13:30:12.823Z,15.47
2023-05-25T13:32:40.538Z,15.26
2023-05-25T13:35:08.237Z,15.42
2023-05-25T13:37:35.234Z,15.51
2023-05-25T13:40:02.239Z,15.56
2023-05-25T13:42:29.348Z,15.61
2023-05-25T13:44:56.257Z,15.60
2023-05-25T13:47:23.348Z,15.56
2023-05-25T13:49:50.368Z,15.55
2023-05-25T13:52:17.434Z,15.64
2023-05-25T13:54:44.403Z,15.73
2023-05-25T13:57:11.313Z,15.57
2023-05-25T13:59:38.862Z,15.65
2023-05-25T14:02:06.027Z,15.51
2023-05-25T14:04:32.948Z,15.58
2023-05-25T14:07:00.234Z,15.63
2023-05-25T14:09:27.180Z,15.30
2023-05-25T14:11:54.503Z,15.19
2023-05-25T14:14:31.559Z,15.12
2023-05-25T14:17:00.599Z,15.08
2023-05-25T14:19:27.999Z,15.11
2023-05-25T14:24:24.731Z,15.10
2023-05-25T14:26:51.671Z,15.17
2023-05-25T14:29:18.623Z,15.17
2023-05-25T14:31:46.404Z,15.22
2023-05-25T14:34:13.328Z,15.21
2023-05-25T14:36:40.317Z,15.24
2023-05-25T14:39:07.230Z,15.01
2023-05-25T14:41:34.160Z,14.93
2023-05-25T14:44:01.257Z,14.96
2023-05-25T14:46:28.273Z,14.87
2023-05-25T14:48:55.215Z,14.79
2023-05-25T14:51:22.146Z,14.73
2023-05-25T14:53:49.180Z,14.81
2023-05-25T14:56:21.942Z,14.89
2023-05-25T14:58:48.923Z,14.85
2023-05-25T15:01:15.813Z,14.83
2023-05-25T15:03:42.846Z,14.80
2023-05-25T15:06:09.845Z,14.75
2023-05-25T15:08:37.451Z,14.98
2023-05-25T15:11:04.452Z,14.91
2023-05-25T15:13:31.358Z,15.07
2023-05-25T15:15:58.325Z,15.07
2023-05-25T15:18:25.679Z,15.23
2023-05-25T15:20:53.146Z,15.26
2023-05-25T15:23:20.183Z,15.15
2023-05-25T15:25:47.209Z,15.06
2023-05-25T15:28:14.138Z,15.05
2023-05-25T15:30:41.076Z,14.68
2023-05-25T15:33:08.160Z,15.00
2023-05-25T15:35:35.228Z,15.04
2023-05-25T15:38:02.173Z,15.11
2023-05-25T15:40:29.242Z,15.24
2023-05-25T15:42:56.460Z,15.29
2023-05-25T15:45:23.376Z,15.39
2023-05-25T15:47:50.810Z,15.37
2023-05-25T15:50:17.977Z,15.37
2023-05-25T15:52:44.878Z,15.37
2023-05-25T15:55:11.802Z,15.33
2023-05-25T15:57:38.751Z,15.25
2023-05-25T16:00:06.321Z,15.33
2023-05-25T16:02:33.430Z,15.32
2023-05-25T16:05:00.494Z,15.35
2023-05-25T16:07:27.472Z,15.37
2023-05-25T16:09:54.454Z,15.30
2023-05-25T16:12:24.820Z,15.41
2023-05-25T16:14:52.678Z,15.42
2023-05-25T16:17:20.060Z,15.47
2023-05-25T16:19:49.802Z,15.55
2023-05-25T16:22:16.798Z,15.56
2023-05-25T16:24:43.768Z,15.68
2023-05-25T16:27:10.744Z,15.79
2023-05-25T16:29:37.765Z,15.75
2023-05-25T16:32:05.040Z,15.72
2023-05-25T16:34:32.108Z,15.74
2023-05-25T16:36:59.088Z,15.75
2023-05-25T16:39:25.974Z,15.81
2023-05-25T16:41:52.979Z,15.66
2023-05-25T16:44:20.020Z,15.59
2023-05-25T16:46:47.049Z,15.42
2023-05-25T16:49:14.046Z,15.41
2023-05-25T16:51:40.995Z,15.40
2023-05-25T16:54:08.491Z,15.41
2023-05-25T16:56:36.130Z,15.35
2023-05-25T16:59:03.124Z,15.35
2023-05-25T17:01:30.122Z,15.32
2023-05-25T17:03:57.178Z,15.31
2023-05-25T17:06:24.272Z,15.43
2023-05-25T17:08:51.164Z,15.45
2023-05-25T17:11:18.185Z,15.34
2023-05-25T17:13:45.113Z,15.29
2023-05-25T17:16:12.118Z,15.27
2023-05-25T17:18:39.123Z,15.28
2023-05-25T17:21:06.186Z,15.26
2023-05-25T17:23:33.098Z,15.30
2023-05-25T17:26:00.059Z,15.39
2023-05-25T17:28:28.983Z,15.41
2023-05-25T17:30:56.693Z,15.44
2023-05-25T17:33:23.732Z,15.46
2023-05-25T17:35:50.848Z,15.46
2023-05-25T17:38:17.856Z,15.45
2023-05-25T17:40:44.856Z,15.51
2023-05-25T17:43:11.800Z,15.53
2023-05-25T17:45:38.850Z,15.49
2023-05-25T17:48:06.011Z,15.37
2023-05-25T17:50:33.048Z,15.48
2023-05-25T17:53:00.038Z,15.49
2023-05-25T17:55:27.273Z,15.49
2023-05-25T17:57:54.178Z,15.51
2023-05-25T18:00:23.347Z,15.52
2023-05-25T18:02:50.325Z,15.52
2023-05-25T18:05:17.352Z,15.49
2023-05-25T18:07:44.304Z,15.45
2023-05-25T18:10:11.411Z,15.51
2023-05-25T18:12:38.334Z,15.47
2023-05-25T18:15:05.677Z,15.50
2023-05-25T18:17:32.624Z,15.46
2023-05-25T18:19:59.551Z,15.42
2023-05-25T18:22:26.551Z,15.42
2023-05-25T18:24:53.483Z,15.39
2023-05-25T18:27:21.828Z,15.35
2023-05-25T18:29:48.847Z,15.33
2023-05-25T18:32:15.978Z,15.29
2023-05-25T18:34:45.179Z,15.26
2023-05-25T18:37:12.135Z,15.25
2023-05-25T18:39:39.095Z,15.18
2023-05-25T18:42:06.724Z,15.14
2023-05-25T18:44:33.785Z,15.12
2023-05-25T18:47:00.879Z,15.11
2023-05-25T18:49:32.980Z,15.07
2023-05-25T18:52:00.110Z,15.04
2023-05-25T18:54:27.747Z,15.00
2023-05-25T18:56:54.644Z,14.94
2023-05-25T18:59:21.688Z,14.81
2023-05-25T19:01:48.705Z,14.83
2023-05-25T19:04:16.062Z,14.76
2023-05-25T19:06:43.077Z,14.44
2023-05-25T19:09:09.983Z,14.61
2023-05-25T19:11:36.945Z,14.47
2023-05-25T19:14:03.909Z,14.41
2023-05-25T19:16:30.869Z,14.30
2023-05-25T19:18:57.817Z,14.23
2023-05-25T19:21:24.803Z,14.14
2023-05-25T19:23:51.942Z,14.06
2023-05-25T19:26:19.077Z,13.97
2023-05-25T19:28:46.022Z,13.87
2023-05-25T19:31:12.985Z,13.76
2023-05-25T19:33:40.014Z,13.66
2023-05-25T19:36:06.992Z,13.58
2023-05-25T19:38:41.111Z,13.50
2023-05-25T19:41:09.076Z,13.46
2023-05-25T19:43:36.337Z,13.39
2023-05-25T19:46:04.050Z,13.32
2023-05-25T19:48:31.336Z,13.25
2023-05-25T19:50:58.282Z,13.13
2023-05-25T19:53:25.204Z,13.05
2023-05-25T19:55:52.169Z,12.95
2023-05-25T19:58:19.136Z,12.87
2023-05-25T20:00:46.281Z,12.82
2023-05-25T20:03:16.265Z,12.84
2023-05-25T20:05:44.576Z,12.79
2023-05-25T20:08:11.738Z,12.75
2023-05-25T20:10:39.838Z,12.68
2023-05-25T20:13:07.682Z,12.62
2023-05-25T20:15:35.126Z,12.53
2023-05-25T20:18:02.943Z,12.48
2023-05-25T20:20:30.038Z,12.46
2023-05-25T20:22:57.034Z,12.43
2023-05-25T20:25:23.991Z,12.41
2023-05-25T20:27:50.951Z,12.36
2023-05-25T20:30:18.010Z,12.33
2023-05-25T20:32:45.048Z,12.26
2023-05-25T20:35:13.543Z,12.27
2023-05-25T20:37:40.545Z,12.26
2023-05-25T20:40:07.945Z,12.21
2023-05-25T20:42:35.384Z,12.17
2023-05-25T20:45:02.596Z,12.11
2023-05-25T20:47:29.591Z,12.11
2023-05-25T20:49:56.720Z,12.06
2023-05-25T20:52:24.410Z,12.02
2023-05-25T20:54:51.468Z,11.97
2023-05-25T20:57:18.478Z,11.93
2023-05-25T20:59:45.604Z,11.94
2023-05-25T21:02:12.548Z,11.92
2023-05-25T21:04:39.461Z,11.94
2023-05-25T21:07:06.681Z,11.95
2023-05-25T21:09:33.598Z,11.95
2023-05-25T21:12:01.968Z,11.97
2023-05-25T21:14:29.968Z,11.99
2023-05-25T21:16:56.928Z,11.97
2023-05-25T21:19:24.664Z,11.95
2023-05-25T21:21:51.988Z,12.00
2023-05-25T21:24:18.921Z,12.01
2023-05-25T21:26:45.847Z,12.02
2023-05-25T21:29:12.835Z,12.04
2023-05-25T21:31:39.848Z,12.09
2023-05-25T21:34:07.315Z,12.10
2023-05-25T21:36:34.340Z,12.13
2023-05-25T21:39:01.259Z,12.17
2023-05-25T21:41:28.591Z,12.19
2023-05-25T21:43:55.846Z,12.20
2023-05-25T21:46:22.644Z,12.24
2023-05-25T21:48:49.474Z,12.26
2023-05-25T21:51:17.195Z,12.29
2023-05-25T21:53:43.984Z,12.32
2023-05-25T21:56:10.828Z,12.35
2023-05-25T21:58:37.808Z,12.38
2023-05-25T22:01:04.871Z,12.41
2023-05-25T22:03:31.869Z,12.45
2023-05-25T22:05:58.814Z,12.47
2023-05-25T22:08:25.732Z,12.51
2023-05-25T22:10:52.555Z,12.52
2023-05-25T22:13:19.405Z,12.55
2023-05-25T22:15:46.653Z,12.60
2023-05-25T22:18:13.841Z,12.60
2023-05-25T22:20:42.328Z,12.63
2023-05-25T22:23:12.297Z,12.64
2023-05-25T22:25:39.126Z,12.69
2023-05-25T22:28:06.172Z,12.72
2023-05-25T22:30:33.200Z,12.74
2023-05-25T22:33:00.174Z,12.77
2023-05-25T22:35:27.038Z,12.78
2023-05-25T22:37:53.887Z,12.78
2023-05-25T22:40:20.739Z,12.79
2023-05-25T22:42:50.453Z,12.81
2023-05-25T22:45:18.139Z,12.83
2023-05-25T22:47:45.084Z,12.84
2023-05-25T22:50:12.853Z,12.85
2023-05-25T22:52:41.626Z,12.87
2023-05-25T22:55:09.878Z,12.87
2023-05-25T22:57:37.321Z,12.87
2023-05-25T23:00:05.251Z,12.87
2023-05-25T23:02:32.349Z,12.89
2023-05-25T23:04:59.375Z,12.91
2023-05-25T23:07:26.357Z,12.92
2023-05-25T23:09:53.192Z,12.91
2023-05-25T23:12:20.042Z,12.92
2023-05-25T23:14:46.872Z,12.91
2023-05-25T23:17:13.884Z,12.93
2023-05-25T23:19:40.747Z,12.93
2023-05-25T23:22:07.586Z,12.93
2023-05-25T23:24:34.482Z,12.89
2023-05-25T23:27:01.995Z,12.94
2023-05-25T23:29:29.127Z,12.94
2023-05-25T23:31:56.035Z,12.94
2023-05-25T23:34:23.093Z,12.94
2023-05-25T23:36:49.968Z,12.95
2023-05-25T23:39:16.793Z,12.95
2023-05-25T23:41:43.605Z,12.96
2023-05-25T23:44:10.590Z,12.94
2023-05-25T23:46:37.446Z,12.95
2023-05-25T23:49:04.360Z,12.97
2023-05-25T23:51:32.290Z,12.96
2023-05-25T23:53:59.114Z,12.96
2023-05-25T23:56:27.986Z,12.95
2023-05-25T23:58:55.096Z,12.95
